createdAt,value
2023-05-20T00:01:07.553Z,10.30
2023-05-20T00:03:34.165Z,11.18
2023-05-20T00:06:00.943Z,10.23
2023-05-20T00:08:27.513Z,10.00
2023-05-20T00:10:54.074Z,12.35
2023-05-20T00:13:20.704Z,9.13
2023-05-20T00:15:47.395Z,11.40
2023-05-20T00:18:13.913Z,10.38
2023-05-20T00:20:40.509Z,9.90
2023-05-20T00:23:07.028Z,10.48
2023-05-20T00:25:33.785Z,9.75
2023-05-20T00:28:00.691Z,10.95
2023-05-20T00:30:27.302Z,13.95
2023-05-20T00:32:53.849Z,13.65
2023-05-20T00:35:20.537Z,11.93
2023-05-20T00:37:47.136Z,10.23
2023-05-20T00:40:15.628Z,11.13
2023-05-20T00:42:42.385Z,10.15
2023-05-20T00:45:09.341Z,11.82
2023-05-20T00:47:39.181Z,10.60
2023-05-20T00:50:06.569Z,12.30
2023-05-20T00:52:33.946Z,10.25
2023-05-20T00:55:01.132Z,13.80
2023-05-20T00:57:27.894Z,9.73
2023-05-20T00:59:54.907Z,9.40
2023-05-20T01:02:22.197Z,12.23
2023-05-20T01:04:49.061Z,10.43
2023-05-20T01:07:17.674Z,10.35
2023-05-20T01:09:44.760Z,10.52
2023-05-20T01:12:16.068Z,11.48
2023-05-20T01:14:50.856Z,12.55
2023-05-20T01:17:20.901Z,12.23
2023-05-20T01:19:49.069Z,12.15
2023-05-20T01:22:16.282Z,9.38
2023-05-20T01:24:44.798Z,10.20
2023-05-20T01:27:13.559Z,12.00
2023-05-20T01:29:41.996Z,10.35
2023-05-20T01:34:41.599Z,10.32
2023-05-20T01:37:09.111Z,11.85
2023-05-20T01:39:38.460Z,11.88
2023-05-20T01:42:06.352Z,9.85
2023-05-20T01:44:33.644Z,13.32
2023-05-20T01:47:01.659Z,12.00
2023-05-20T01:49:28.920Z,10.68
2023-05-20T01:51:55.977Z,13.98
2023-05-20T01:54:22.513Z,16.10
2023-05-20T01:56:50.100Z,11.07
2023-05-20T01:59:16.797Z,14.02
2023-05-20T02:01:43.519Z,10.98
2023-05-20T02:04:10.087Z,11.45
2023-05-20T02:06:36.639Z,9.68
2023-05-20T02:09:03.481Z,11.75
2023-05-20T02:11:30.033Z,8.38
2023-05-20T02:13:57.084Z,11.73
2023-05-20T02:16:23.673Z,10.65
2023-05-20T02:18:53.043Z,12.02
2023-05-20T02:21:19.829Z,11.52
2023-05-20T02:23:46.590Z,12.45
2023-05-20T02:26:13.182Z,10.27
2023-05-20T02:28:43.644Z,11.13
2023-05-20T02:31:10.407Z,12.13
2023-05-20T02:33:36.973Z,12.68
2023-05-20T02:36:03.733Z,12.93
2023-05-20T02:38:32.286Z,9.65
2023-05-20T02:40:59.911Z,11.43
2023-05-20T02:43:26.452Z,10.88
2023-05-20T02:45:53.000Z,12.25
2023-05-20T02:48:19.579Z,13.52
2023-05-20T02:50:47.563Z,10.77
2023-05-20T02:53:14.139Z,10.68
2023-05-20T02:55:40.941Z,10.98
2023-05-20T02:58:07.681Z,10.43
2023-05-20T03:00:40.686Z,9.57
2023-05-20T03:03:08.702Z,12.77
2023-05-20T03:05:37.996Z,11.82
2023-05-20T03:08:09.861Z,12.63
2023-05-20T03:10:40.001Z,11.07
2023-05-20T03:13:09.396Z,10.25
2023-05-20T03:15:36.749Z,14.43
2023-05-20T03:18:03.908Z,12.82
2023-05-20T03:20:32.621Z,11.23
2023-05-20T03:22:59.262Z,13.35
2023-05-20T03:25:26.361Z,13.52
2023-05-20T03:27:52.951Z,12.30
2023-05-20T03:30:19.558Z,13.90
2023-05-20T03:32:46.183Z,12.98
2023-05-20T03:35:13.160Z,10.68
2023-05-20T03:37:39.960Z,16.38
2023-05-20T03:40:07.769Z,10.70
2023-05-20T03:42:34.693Z,12.75
2023-05-20T03:45:01.600Z,14.23
2023-05-20T03:47:28.804Z,12.35
2023-05-20T03:49:55.449Z,12.45
2023-05-20T03:52:22.028Z,15.52
2023-05-20T03:54:48.568Z,12.75
2023-05-20T03:57:15.506Z,14.35
2023-05-20T03:59:42.137Z,11.73
2023-05-20T04:02:09.777Z,12.73
2023-05-20T04:04:36.647Z,12.27
2023-05-20T04:07:04.998Z,11.27
2023-05-20T04:11:58.172Z,15.25
2023-05-20T04:14:24.721Z,12.40
2023-05-20T04:16:51.681Z,12.35
2023-05-20T04:19:21.102Z,12.93
2023-05-20T04:21:47.847Z,11.05
2023-05-20T04:24:14.658Z,11.90
2023-05-20T04:26:41.527Z,11.52
2023-05-20T04:29:08.153Z,11.60
2023-05-20T04:31:34.678Z,11.57
2023-05-20T04:34:02.768Z,11.77
2023-05-20T04:36:30.545Z,14.13
2023-05-20T04:38:57.543Z,12.73
2023-05-20T04:41:24.338Z,9.82
2023-05-20T04:43:50.918Z,12.65
2023-05-20T04:46:17.556Z,12.02
2023-05-20T04:48:44.145Z,13.55
2023-05-20T04:51:11.035Z,13.43
2023-05-20T04:53:38.164Z,12.02
2023-05-20T04:56:05.738Z,11.75
2023-05-20T04:58:33.506Z,13.30
2023-05-20T05:01:01.467Z,15.35
2023-05-20T05:03:28.290Z,13.45
2023-05-20T05:05:58.723Z,12.18
2023-05-20T05:08:26.648Z,10.35
2023-05-20T05:10:53.333Z,11.48
2023-05-20T05:13:19.960Z,10.48
2023-05-20T05:15:46.468Z,11.68
2023-05-20T05:18:13.698Z,10.32
2023-05-20T05:20:40.332Z,13.20
2023-05-20T05:23:07.228Z,12.43
2023-05-20T05:25:33.899Z,11.23
2023-05-20T05:28:00.834Z,12.00
2023-05-20T05:30:27.573Z,12.88
2023-05-20T05:32:54.250Z,11.60
2023-05-20T05:35:21.164Z,11.77
2023-05-20T05:37:47.774Z,11.75
2023-05-20T05:40:14.452Z,10.93
2023-05-20T05:42:41.114Z,10.02
2023-05-20T05:45:08.433Z,10.57
2023-05-20T05:47:35.023Z,10.60
2023-05-20T05:50:01.673Z,10.48
2023-05-20T05:52:28.261Z,11.73
2023-05-20T05:54:55.733Z,10.70
2023-05-20T05:57:22.462Z,10.10
2023-05-20T05:59:48.908Z,12.00
2023-05-20T06:02:15.582Z,10.07
2023-05-20T06:04:42.252Z,11.68
2023-05-20T06:07:08.787Z,11.10
2023-05-20T06:09:35.484Z,10.63
2023-05-20T06:12:02.598Z,9.93
2023-05-20T06:14:29.168Z,9.10
2023-05-20T06:16:55.874Z,10.73
2023-05-20T06:19:22.516Z,9.15
2023-05-20T06:21:49.133Z,9.98
2023-05-20T06:24:16.079Z,9.20
2023-05-20T06:26:42.731Z,8.13
2023-05-20T06:29:09.263Z,9.07
2023-05-20T06:31:35.870Z,7.55
2023-05-20T06:34:02.426Z,7.32
2023-05-20T06:36:29.749Z,10.10
2023-05-20T06:38:57.308Z,12.43
2023-05-20T06:41:23.856Z,8.82
2023-05-20T06:43:52.587Z,9.07
2023-05-20T06:46:20.226Z,7.40
2023-05-20T06:48:46.802Z,7.88
2023-05-20T06:51:14.092Z,8.90
2023-05-20T06:53:40.607Z,8.40
2023-05-20T06:56:07.366Z,7.70
2023-05-20T06:58:33.937Z,7.63
2023-05-20T07:01:00.658Z,7.38
2023-05-20T07:03:27.261Z,6.50
2023-05-20T07:05:53.961Z,8.70
2023-05-20T07:08:20.593Z,7.45
2023-05-20T07:10:47.140Z,7.95
2023-05-20T07:13:13.972Z,6.93
2023-05-20T07:15:40.666Z,10.30
2023-05-20T07:18:07.307Z,8.73
2023-05-20T07:20:34.019Z,7.72
2023-05-20T07:23:02.690Z,8.20
2023-05-20T07:25:29.272Z,7.00
2023-05-20T07:27:55.834Z,7.47
2023-05-20T07:30:22.487Z,7.85
2023-05-20T07:32:49.077Z,6.55
2023-05-20T07:35:15.863Z,6.25
2023-05-20T07:37:42.376Z,7.15
2023-05-20T07:40:09.744Z,7.63
2023-05-20T07:42:36.330Z,6.10
2023-05-20T07:45:03.050Z,5.85
2023-05-20T07:47:31.795Z,6.78
2023-05-20T07:49:58.829Z,6.53
2023-05-20T07:52:25.403Z,5.38
2023-05-20T07:54:51.931Z,5.85
2023-05-20T07:57:18.450Z,5.45
2023-05-20T07:59:45.230Z,6.60
2023-05-20T08:02:11.921Z,6.15
2023-05-20T08:04:38.735Z,6.93
2023-05-20T08:07:05.691Z,4.90
2023-05-20T08:09:34.724Z,5.03
2023-05-20T08:12:01.264Z,6.82
2023-05-20T08:14:27.821Z,8.18
2023-05-20T08:16:55.089Z,5.55
2023-05-20T08:19:21.856Z,5.18
2023-05-20T08:21:48.717Z,5.00
2023-05-20T08:24:15.263Z,6.35
2023-05-20T08:26:41.913Z,4.30
2023-05-20T08:29:08.464Z,6.22
2023-05-20T08:31:35.138Z,5.78
2023-05-20T08:34:01.748Z,6.20
2023-05-20T08:36:28.375Z,5.30
2023-05-20T08:38:55.896Z,8.13
2023-05-20T08:41:22.757Z,5.07
2023-05-20T08:43:51.415Z,4.15
2023-05-20T08:46:19.434Z,6.63
2023-05-20T08:53:40.331Z,8.20
2023-05-20T08:56:08.507Z,7.20
2023-05-20T08:58:35.401Z,4.57
2023-05-20T09:01:02.294Z,5.00
2023-05-20T09:03:28.992Z,7.05
2023-05-20T09:06:07.446Z,5.70
2023-05-20T09:08:34.576Z,5.05
2023-05-20T09:11:01.844Z,4.93
2023-05-20T09:13:31.317Z,4.45
2023-05-20T09:16:00.232Z,4.70
2023-05-20T09:18:27.085Z,5.45
2023-05-20T09:20:53.818Z,6.07
2023-05-20T09:23:23.207Z,4.50
2023-05-20T09:25:52.048Z,7.47
2023-05-20T09:28:25.238Z,5.00
2023-05-20T09:30:58.657Z,6.93
2023-05-20T09:33:32.089Z,4.57
2023-05-20T09:36:04.356Z,4.60
2023-05-20T09:38:38.166Z,4.85
2023-05-20T09:41:08.770Z,6.00
2023-05-20T09:43:37.375Z,6.25
2023-05-20T09:46:04.637Z,5.03
2023-05-20T09:48:34.236Z,4.75
2023-05-20T09:51:02.525Z,5.70
2023-05-20T09:53:29.152Z,4.85
2023-05-20T09:55:56.478Z,6.63
2023-05-20T09:58:24.072Z,4.95
2023-05-20T10:00:51.173Z,5.25
2023-05-20T10:03:19.157Z,5.43
2023-05-20T10:08:35.207Z,5.78
2023-05-20T10:11:32.525Z,5.68
2023-05-20T10:14:26.620Z,5.18
2023-05-20T10:17:21.505Z,10.65
2023-05-20T10:19:49.908Z,5.72
2023-05-20T10:22:28.578Z,6.32
2023-05-20T10:25:09.016Z,5.63
2023-05-20T10:27:48.482Z,7.45
2023-05-20T10:30:18.759Z,5.68
2023-05-20T10:32:57.527Z,4.63
2023-05-20T10:35:26.657Z,5.55
2023-05-20T10:37:55.250Z,5.30
2023-05-20T10:40:23.235Z,4.70
2023-05-20T10:45:27.746Z,7.13
2023-05-20T10:47:56.857Z,6.30
2023-05-20T10:50:37.382Z,5.75
2023-05-20T10:53:18.547Z,6.53
2023-05-20T10:55:54.771Z,6.45
2023-05-20T10:58:25.104Z,6.68
2023-05-20T11:00:55.003Z,5.50
2023-05-20T11:03:23.065Z,4.93
2023-05-20T11:05:51.259Z,6.18
2023-05-20T11:10:59.167Z,6.05
2023-05-20T11:13:26.493Z,5.43
2023-05-20T11:15:53.390Z,6.72
2023-05-20T11:18:20.080Z,5.38
2023-05-20T11:20:47.634Z,5.10
2023-05-20T11:23:15.462Z,6.40
2023-05-20T11:28:15.856Z,5.70
2023-05-20T11:30:43.576Z,4.78
2023-05-20T11:33:15.944Z,5.20
2023-05-20T11:35:57.072Z,8.30
2023-05-20T11:38:24.846Z,5.57
2023-05-20T11:40:56.281Z,5.57
2023-05-20T11:43:25.007Z,5.03
2023-05-20T11:45:57.744Z,6.07
2023-05-20T11:48:24.718Z,7.47
2023-05-20T11:50:58.418Z,5.65
2023-05-20T11:53:26.754Z,5.93
2023-05-20T11:55:56.394Z,8.23
2023-05-20T11:58:50.866Z,7.13
2023-05-20T12:01:22.396Z,5.10
2023-05-20T12:03:53.496Z,10.73
2023-05-20T12:06:24.749Z,4.45
2023-05-20T12:09:00.732Z,5.03
2023-05-20T12:11:27.924Z,6.10
2023-05-20T12:14:13.311Z,6.20
2023-05-20T12:16:40.048Z,5.75
2023-05-20T12:19:08.759Z,8.00
2023-05-20T12:21:36.235Z,4.57
2023-05-20T12:24:05.348Z,5.30
2023-05-20T12:26:35.387Z,7.40
2023-05-20T12:29:02.544Z,5.30
2023-05-20T12:31:34.676Z,5.10
2023-05-20T12:34:02.124Z,6.22
2023-05-20T12:36:28.923Z,4.53
2023-05-20T12:39:25.354Z,4.78
2023-05-20T12:41:52.307Z,5.65
2023-05-20T12:44:19.136Z,6.43
2023-05-20T12:46:45.834Z,5.65
2023-05-20T12:49:12.431Z,5.57
2023-05-20T12:51:39.195Z,5.43
2023-05-20T12:54:06.127Z,4.28
2023-05-20T12:56:32.849Z,5.47
2023-05-20T12:58:59.982Z,4.75
2023-05-20T13:01:36.095Z,4.50
2023-05-20T13:04:03.008Z,5.43
2023-05-20T13:06:34.643Z,5.30
2023-05-20T13:09:01.331Z,4.47
2023-05-20T13:11:28.017Z,5.65
2023-05-20T13:14:00.743Z,7.47
2023-05-20T13:16:28.641Z,5.15
2023-05-20T13:21:22.736Z,5.00
2023-05-20T13:23:49.491Z,6.47
2023-05-20T13:26:18.174Z,7.85
2023-05-20T13:28:45.745Z,5.10
2023-05-20T13:31:12.823Z,8.68
2023-05-20T13:33:39.575Z,8.75
2023-05-20T13:36:06.711Z,6.95
2023-05-20T13:38:35.168Z,5.53
2023-05-20T13:41:02.533Z,5.78
2023-05-20T13:43:29.635Z,5.57
2023-05-20T13:45:56.312Z,6.15
2023-05-20T13:48:23.219Z,5.38
2023-05-20T13:50:50.535Z,4.20
2023-05-20T13:53:18.610Z,4.35
2023-05-20T13:55:45.705Z,4.97
2023-05-20T13:58:12.576Z,5.10
2023-05-20T14:00:39.969Z,5.22
2023-05-20T14:03:09.427Z,5.28
2023-05-20T14:05:36.802Z,4.35
2023-05-20T14:08:03.884Z,7.43
2023-05-20T14:10:30.517Z,5.57
2023-05-20T14:13:02.254Z,5.15
2023-05-20T14:15:32.026Z,4.65
2023-05-20T14:17:58.784Z,5.97
2023-05-20T14:20:26.468Z,4.65
2023-05-20T14:22:53.903Z,4.18
2023-05-20T14:25:20.889Z,6.53
2023-05-20T14:27:47.516Z,4.68
2023-05-20T14:30:14.650Z,5.20
2023-05-20T14:32:41.877Z,5.35
2023-05-20T14:35:09.087Z,5.55
2023-05-20T14:37:35.862Z,4.65
2023-05-20T14:40:05.647Z,7.78
2023-05-20T14:42:32.454Z,5.25
2023-05-20T14:44:59.471Z,6.38
2023-05-20T14:47:26.971Z,4.45
2023-05-20T14:49:57.274Z,5.03
2023-05-20T14:52:24.305Z,5.40
2023-05-20T14:54:51.112Z,6.93
2023-05-20T14:57:18.135Z,5.20
2023-05-20T14:59:47.820Z,4.53
2023-05-20T15:02:15.784Z,4.45
2023-05-20T15:04:48.144Z,5.05
2023-05-20T15:07:16.031Z,4.28
2023-05-20T15:09:44.188Z,4.45
2023-05-20T15:12:11.856Z,5.90
2023-05-20T15:14:42.190Z,4.40
2023-05-20T15:17:09.059Z,4.82
2023-05-20T15:19:39.610Z,5.07
2023-05-20T15:22:07.963Z,4.50
2023-05-20T15:24:35.177Z,4.82
2023-05-20T15:27:01.798Z,7.93
2023-05-20T15:29:28.539Z,6.30
2023-05-20T15:31:55.532Z,5.18
2023-05-20T15:34:22.500Z,5.05
2023-05-20T15:36:51.575Z,4.70
2023-05-20T15:39:18.236Z,7.22
2023-05-20T15:41:48.029Z,5.63
2023-05-20T15:44:16.848Z,4.93
2023-05-20T15:46:49.815Z,4.82
2023-05-20T15:49:17.225Z,3.90
2023-05-20T15:51:55.824Z,6.32
2023-05-20T15:54:29.587Z,4.50
2023-05-20T15:57:10.219Z,6.03
2023-05-20T15:59:36.970Z,4.85
2023-05-20T16:02:04.019Z,4.47
2023-05-20T16:04:30.972Z,3.85
2023-05-20T16:06:57.994Z,5.43
2023-05-20T16:09:24.869Z,3.85
2023-05-20T16:11:51.704Z,4.13
2023-05-20T16:14:18.666Z,4.80
2023-05-20T16:16:45.682Z,4.60
2023-05-20T16:19:12.673Z,6.07
2023-05-20T16:21:39.474Z,6.32
2023-05-20T16:24:06.837Z,4.28
2023-05-20T16:26:33.967Z,5.57
2023-05-20T16:29:00.672Z,3.70
2023-05-20T16:31:27.568Z,5.00
2023-05-20T16:33:54.535Z,5.63
2023-05-20T16:36:21.718Z,4.68
2023-05-20T16:38:48.620Z,4.03
2023-05-20T16:41:16.363Z,4.85
2023-05-20T16:43:43.253Z,4.72
2023-05-20T16:46:10.220Z,4.75
2023-05-20T16:48:37.054Z,4.95
2023-05-20T16:51:04.019Z,4.38
2023-05-20T16:53:30.835Z,5.30
2023-05-20T16:55:57.576Z,5.35
2023-05-20T16:58:24.177Z,6.35
2023-05-20T17:00:50.966Z,5.60
2023-05-20T17:03:18.107Z,4.38
2023-05-20T17:05:45.268Z,5.00
2023-05-20T17:08:12.337Z,7.45
2023-05-20T17:10:53.271Z,7.70
2023-05-20T17:13:20.767Z,5.75
2023-05-20T17:15:47.448Z,4.80
2023-05-20T17:18:14.073Z,6.80
2023-05-20T17:20:41.062Z,5.82
2023-05-20T17:23:07.898Z,4.05
2023-05-20T17:25:34.593Z,7.88
2023-05-20T17:28:01.317Z,5.00
2023-05-20T17:30:28.441Z,4.45
2023-05-20T17:32:55.185Z,5.85
2023-05-20T17:35:25.588Z,6.80
2023-05-20T17:37:53.619Z,6.00
2023-05-20T17:40:20.854Z,7.32
2023-05-20T17:42:53.478Z,6.57
2023-05-20T17:45:20.537Z,4.90
2023-05-20T17:47:47.535Z,4.45
2023-05-20T17:50:15.395Z,5.60
2023-05-20T17:52:42.142Z,5.18
2023-05-20T17:55:09.720Z,4.60
2023-05-20T17:57:36.901Z,5.25
2023-05-20T18:00:10.200Z,4.47
2023-05-20T18:02:40.215Z,6.85
2023-05-20T18:05:07.755Z,5.95
2023-05-20T18:07:36.348Z,8.05
2023-05-20T18:10:04.800Z,7.15
2023-05-20T18:12:31.587Z,5.57
2023-05-20T18:15:01.666Z,4.93
2023-05-20T18:17:51.834Z,4.72
2023-05-20T18:20:27.866Z,4.40
2023-05-20T18:22:58.902Z,5.28
2023-05-20T18:25:26.212Z,6.35
2023-05-20T18:28:02.180Z,6.07
2023-05-20T18:30:29.470Z,5.07
2023-05-20T18:32:57.212Z,5.18
2023-05-20T18:35:24.889Z,6.15
2023-05-20T18:37:51.897Z,5.18
2023-05-20T18:40:20.674Z,6.47
2023-05-20T18:42:47.522Z,4.25
2023-05-20T18:45:14.205Z,5.70
2023-05-20T18:47:42.043Z,6.90
2023-05-20T18:50:09.392Z,8.02
2023-05-20T18:52:36.100Z,4.63
2023-05-20T18:55:02.949Z,6.10
2023-05-20T18:57:30.711Z,4.90
2023-05-20T18:59:57.684Z,5.50
2023-05-20T19:02:24.324Z,8.05
2023-05-20T19:04:51.353Z,6.03
2023-05-20T19:07:18.055Z,4.85
2023-05-20T19:09:45.356Z,5.88
2023-05-20T19:12:11.991Z,6.10
2023-05-20T19:14:51.423Z,5.65
2023-05-20T19:17:21.298Z,7.93
2023-05-20T19:19:48.501Z,4.85
2023-05-20T19:22:15.326Z,6.00
2023-05-20T19:24:42.624Z,5.22
2023-05-20T19:27:09.179Z,4.45
2023-05-20T19:29:36.044Z,4.28
2023-05-20T19:32:08.930Z,5.93
2023-05-20T19:34:35.554Z,5.20
2023-05-20T19:37:03.281Z,4.75
2023-05-20T19:39:37.625Z,4.95
2023-05-20T19:42:04.448Z,5.75
2023-05-20T19:44:50.332Z,4.50
2023-05-20T19:47:26.865Z,5.03
2023-05-20T19:50:09.984Z,5.57
2023-05-20T19:52:36.618Z,4.80
2023-05-20T19:55:04.024Z,6.35
2023-05-20T19:57:53.583Z,7.53
2023-05-20T20:00:21.666Z,5.75
2023-05-20T20:05:16.054Z,6.10
2023-05-20T20:10:59.288Z,5.78
2023-05-20T20:13:26.372Z,4.30
2023-05-20T20:15:56.930Z,4.85
2023-05-20T20:18:23.822Z,6.63
2023-05-20T20:20:50.548Z,6.45
2023-05-20T20:23:17.410Z,5.72
2023-05-20T20:25:50.918Z,6.07
2023-05-20T20:28:17.791Z,6.18
2023-05-20T20:30:44.426Z,5.80
2023-05-20T20:33:11.243Z,6.55
2023-05-20T20:35:38.216Z,7.43
2023-05-20T20:38:15.090Z,7.05
2023-05-20T20:40:42.518Z,4.93
2023-05-20T20:43:11.320Z,7.45
2023-05-20T20:45:38.458Z,5.07
2023-05-20T20:48:08.286Z,5.10
2023-05-20T20:50:35.814Z,6.63
2023-05-20T20:53:02.957Z,5.55
2023-05-20T20:55:30.714Z,8.45
2023-05-20T20:57:58.829Z,6.25
2023-05-20T21:02:53.176Z,7.53
2023-05-20T21:05:21.622Z,5.97
2023-05-20T21:07:52.479Z,7.97
2023-05-20T21:10:19.412Z,6.05
2023-05-20T21:12:46.341Z,6.40
2023-05-20T21:15:14.961Z,7.20
2023-05-20T21:17:41.780Z,7.55
2023-05-20T21:20:08.803Z,6.28
2023-05-20T21:22:35.452Z,7.30
2023-05-20T21:25:02.109Z,6.13
2023-05-20T21:27:28.781Z,7.07
2023-05-20T21:29:55.407Z,5.90
2023-05-20T21:32:21.946Z,5.75
2023-05-20T21:34:48.734Z,7.18
2023-05-20T21:37:17.231Z,6.57
2023-05-20T21:39:43.851Z,7.47
2023-05-20T21:42:10.453Z,5.75
2023-05-20T21:44:36.981Z,7.00
2023-05-20T21:47:03.748Z,5.95
2023-05-20T21:49:30.953Z,7.63
2023-05-20T21:51:57.504Z,6.00
2023-05-20T21:54:24.272Z,5.30
2023-05-20T21:56:51.566Z,6.38
2023-05-20T21:59:18.432Z,8.45
2023-05-20T22:01:45.103Z,7.88
2023-05-20T22:04:12.120Z,5.50
2023-05-20T22:06:39.845Z,6.47
2023-05-20T22:09:06.594Z,6.22
2023-05-20T22:11:33.790Z,5.53
2023-05-20T22:14:19.222Z,5.93
2023-05-20T22:16:46.792Z,5.75
2023-05-20T22:19:15.177Z,5.80
2023-05-20T22:21:50.107Z,6.32
2023-05-20T22:24:17.945Z,5.45
2023-05-20T22:26:45.180Z,6.10
2023-05-20T22:29:11.994Z,5.60
2023-05-20T22:31:38.639Z,6.13
2023-05-20T22:34:05.667Z,5.90
2023-05-20T22:36:34.316Z,6.60
2023-05-20T22:39:02.357Z,6.55
2023-05-20T22:41:29.063Z,6.47
2023-05-20T22:43:56.873Z,7.95
2023-05-20T22:46:24.141Z,6.88
2023-05-20T22:48:54.561Z,7.95
2023-05-20T22:51:22.052Z,6.35
2023-05-20T22:53:49.083Z,5.32
2023-05-20T22:56:15.896Z,5.75
2023-05-20T22:58:46.007Z,6.03
2023-05-20T23:01:13.339Z,5.85
2023-05-20T23:03:40.176Z,6.53
2023-05-20T23:06:06.779Z,6.22
2023-05-20T23:08:33.397Z,6.10
2023-05-20T23:10:59.884Z,7.57
2023-05-20T23:13:26.554Z,6.90
2023-05-20T23:15:53.325Z,5.97
2023-05-20T23:18:19.944Z,6.05
2023-05-20T23:20:47.648Z,5.60
2023-05-20T23:23:14.611Z,7.22
2023-05-20T23:25:42.947Z,6.93
2023-05-20T23:28:11.141Z,6.80
2023-05-20T23:30:38.126Z,7.10
2023-05-20T23:33:05.168Z,6.00
2023-05-20T23:35:31.732Z,8.65
2023-05-20T23:37:58.243Z,6.93
2023-05-20T23:40:25.100Z,6.47
2023-05-20T23:42:52.238Z,6.18
2023-05-20T23:45:18.999Z,6.65
2023-05-20T23:47:45.951Z,7.80
2023-05-20T23:50:13.787Z,7.63
2023-05-20T23:52:40.343Z,6.05
2023-05-20T23:55:09.337Z,6.63
2023-05-20T23:57:36.290Z,8.10
